Time;durP1;ratioP1;P1;durP2;ratioP2;P2;SDS_P1;SDS_P2;PMS_P1;PMS_P2;Temp;Humidity;BMP_temperature;BMP_pressure;BME280_temperature;BME280_humidity;BME280_pressure;Samples;Min_cycle;Max_cycle;Signal;HPM_P1;HPM_P2
2021/01/18 00:01:24;;;;;;;39.30;22.27;;;;;;;-2.14;69.13;100752.69;5074623;28;20051;-69
2021/01/18 00:03:50;;;;;;;41.28;22.10;;;;;;;-2.07;69.43;100748.53;5060888;28;20048;-69
2021/01/18 00:06:18;;;;;;;37.22;21.02;;;;;;;-1.80;68.37;100742.81;5068563;28;20529;-70
2021/01/18 00:08:50;;;;;;;36.55;21.08;;;;;;;-1.77;67.77;100737.22;5069563;28;20090;-70
2021/01/18 00:11:18;;;;;;;37.08;20.77;;;;;;;-1.77;68.28;100729.22;5074571;28;20052;-70
2021/01/18 00:13:45;;;;;;;37.38;20.17;;;;;;;-1.67;68.40;100730.16;5057576;28;20048;-70
2021/01/18 00:16:16;;;;;;;35.42;19.98;;;;;;;-1.86;68.97;100733.47;5057544;28;20473;-72
2021/01/18 00:18:43;;;;;;;41.10;20.75;;;;;;;-1.76;68.87;100730.91;5074807;28;20510;-70
2021/01/18 00:21:09;;;;;;;37.00;20.50;;;;;;;-1.71;69.02;100728.69;5082974;28;20128;-70
2021/01/18 00:23:37;;;;;;;36.58;19.75;;;;;;;-1.60;68.66;100722.47;5046511;28;20475;-69
2021/01/18 00:26:11;;;;;;;34.67;19.70;;;;;;;-1.91;69.76;100726.81;5067216;28;20530;-71
2021/01/18 00:28:41;;;;;;;37.10;21.20;;;;;;;-1.99;69.78;100721.22;5068708;28;20071;-69
2021/01/18 00:31:08;;;;;;;36.72;21.05;;;;;;;-1.88;70.39;100723.88;5074462;28;20506;-70
2021/01/18 00:33:35;;;;;;;36.95;20.52;;;;;;;-1.71;69.72;100723.34;5057737;28;20482;-71
2021/01/18 00:36:03;;;;;;;35.30;20.20;;;;;;;-1.85;70.08;100726.31;5053597;28;20044;-70
2021/01/18 00:38:29;;;;;;;39.33;22.05;;;;;;;-1.88;70.79;100721.22;5033187;28;20044;-70
2021/01/18 00:40:56;;;;;;;36.58;20.65;;;;;;;-1.80;70.75;100713.44;5074161;28;20044;-70
2021/01/18 00:43:23;;;;;;;39.63;21.95;;;;;;;-1.56;70.02;100715.91;5074273;28;20051;-70
2021/01/18 00:45:49;;;;;;;37.00;20.23;;;;;;;-1.46;69.90;100707.03;5074218;28;20319;-70
2021/01/18 00:48:16;;;;;;;34.28;19.90;;;;;;;-1.67;71.33;100711.44;5074172;28;20506;-71
2021/01/18 00:50:42;;;;;;;36.08;20.35;;;;;;;-1.57;70.68;100714.22;5040903;28;20056;-70
2021/01/18 00:53:09;;;;;;;40.72;19.65;;;;;;;-1.54;71.58;100708.63;5057526;28;20456;-69
2021/01/18 00:55:39;;;;;;;36.58;20.23;;;;;;;-1.40;71.29;100711.88;5068937;28;20632;-70
2021/01/18 00:58:17;;;;;;;36.53;20.40;;;;;;;-1.60;71.76;100711.78;5071977;28;20510;-70
2021/01/18 01:01:15;;;;;;;38.30;20.30;;;;;;;-1.55;72.05;100707.78;5074742;28;20084;-70
2021/01/18 01:03:44;;;;;;;37.22;20.48;;;;;;;-1.70;73.03;100709.03;5044684;28;20377;-71
2021/01/18 01:06:10;;;;;;;35.13;20.27;;;;;;;-1.39;74.11;100707.38;5055084;28;20056;-70
2021/01/18 01:08:38;;;;;;;34.65;20.17;;;;;;;-1.32;73.94;100715.69;5072695;28;20509;-70
2021/01/18 01:11:06;;;;;;;36.45;19.73;;;;;;;-1.21;74.27;100707.66;5073615;28;20517;-70
2021/01/18 01:13:32;;;;;;;39.67;21.38;;;;;;;-1.47;75.23;100710.66;5073569;28;20048;-72
2021/01/18 01:15:59;;;;;;;41.20;21.23;;;;;;;-1.61;75.61;100710.94;5072194;28;20047;-70
2021/01/18 01:18:26;;;;;;;39.33;21.63;;;;;;;-1.52;75.98;100715.53;5074007;28;20063;-70
2021/01/18 01:20:52;;;;;;;36.75;20.10;;;;;;;-1.32;76.40;100713.88;5056838;28;20130;-70
2021/01/18 01:23:18;;;;;;;37.97;21.63;;;;;;;-1.51;76.99;100709.22;5068036;28;20048;-70
2021/01/18 01:25:45;;;;;;;38.65;21.38;;;;;;;-1.54;76.87;100708.63;5052186;28;20143;-70
2021/01/18 01:28:12;;;;;;;40.65;20.95;;;;;;;-1.69;77.17;100714.25;5067194;28;20135;-70
2021/01/18 01:30:38;;;;;;;39.63;21.02;;;;;;;-1.73;77.57;100712.78;5068987;28;20057;-71
2021/01/18 01:33:04;;;;;;;39.88;22.15;;;;;;;-1.75;78.62;100721.94;5067777;28;20052;-70
2021/01/18 01:35:31;;;;;;;41.08;21.77;;;;;;;-1.78;80.14;100720.34;5091386;28;20044;-70
2021/01/18 01:37:58;;;;;;;38.97;22.30;;;;;;;-1.78;80.82;100717.69;5042899;28;20510;-70
2021/01/18 01:40:24;;;;;;;42.47;21.95;;;;;;;-1.82;82.46;100720.72;5069075;28;20040;-70
2021/01/18 01:42:51;;;;;;;43.90;22.85;;;;;;;-1.86;82.63;100721.94;5057009;28;20052;-70
2021/01/18 01:45:18;;;;;;;44.67;24.75;;;;;;;-1.81;83.90;100711.75;5057442;28;20121;-71
2021/01/18 01:47:47;;;;;;;41.00;23.27;;;;;;;-1.68;84.48;100717.75;5091360;28;20150;-71
2021/01/18 01:50:17;;;;;;;43.05;22.88;;;;;;;-1.81;84.92;100712.59;5091626;28;20040;-70
2021/01/18 01:52:48;;;;;;;43.20;23.55;;;;;;;-1.78;84.63;100714.16;5040530;28;20044;-71
2021/01/18 01:55:27;;;;;;;42.83;23.08;;;;;;;-1.67;84.46;100710.59;5069994;28;20040;-71
2021/01/18 01:57:53;;;;;;;47.20;24.80;;;;;;;-1.77;85.62;100705.19;5054175;28;20059;-71
2021/01/18 02:00:21;;;;;;;46.55;24.98;;;;;;;-1.51;85.94;100701.22;5073316;28;20582;-70
2021/01/18 02:02:49;;;;;;;44.85;24.27;;;;;;;-1.67;84.96;100703.44;5073261;28;20089;-70
2021/01/18 02:05:16;;;;;;;46.50;24.63;;;;;;;-1.69;85.96;100700.03;5040468;28;20056;-71
2021/01/18 02:07:42;;;;;;;43.67;24.23;;;;;;;-1.67;86.32;100695.41;5026540;28;20048;-70
2021/01/18 02:10:11;;;;;;;48.40;25.25;;;;;;;-1.56;85.86;100698.06;5068494;28;20094;-70
2021/01/18 02:12:38;;;;;;;47.95;26.33;;;;;;;-1.55;86.06;100698.91;5083069;28;20175;-73
2021/01/18 02:15:17;;;;;;;50.20;25.55;;;;;;;-1.75;86.34;100695.22;5064857;28;20052;-70
2021/01/18 02:18:21;;;;;;;51.45;26.75;;;;;;;-1.75;86.84;100690.72;5049641;28;20127;-69
2021/01/18 02:21:08;;;;;;;45.85;25.10;;;;;;;-1.73;86.47;100688.75;5024479;28;20464;-70
2021/01/18 02:23:50;;;;;;;45.75;24.63;;;;;;;-1.59;87.08;100689.44;5054132;28;20422;-70
2021/01/18 02:26:34;;;;;;;46.30;23.42;;;;;;;-1.61;86.90;100694.06;5090751;28;20055;-70
2021/01/18 02:29:16;;;;;;;48.35;25.80;;;;;;;-1.66;87.01;100699.78;5087300;28;20131;-70
2021/01/18 02:32:01;;;;;;;49.92;26.20;;;;;;;-1.42;87.54;100691.59;5050612;28;20044;-71
2021/01/18 02:34:52;;;;;;;52.85;27.30;;;;;;;-1.50;87.55;100699.38;5055857;28;20066;-71
2021/01/18 02:37:35;;;;;;;49.47;26.50;;;;;;;-1.51;88.00;100703.88;5071102;28;20059;-70
2021/01/18 02:40:11;;;;;;;54.25;27.45;;;;;;;-1.68;87.78;100696.38;5073115;28;20131;-70
2021/01/18 02:42:46;;;;;;;50.13;26.98;;;;;;;-1.63;87.96;100696.88;5072835;28;20075;-71
2021/01/18 02:45:15;;;;;;;52.50;27.05;;;;;;;-1.60;88.58;100698.44;5039123;28;20063;-70
2021/01/18 02:47:43;;;;;;;54.67;27.58;;;;;;;-1.75;88.44;100703.22;5055588;28;20501;-73
2021/01/18 02:50:10;;;;;;;56.92;29.65;;;;;;;-1.67;89.30;100695.41;5072720;28;20127;-70
2021/01/18 02:52:39;;;;;;;57.30;28.38;;;;;;;-1.55;89.13;100696.25;5072668;28;20071;-70
2021/01/18 02:55:06;;;;;;;53.90;28.40;;;;;;;-1.64;89.14;100697.84;5052414;28;20101;-73
2021/01/18 02:57:35;;;;;;;58.53;29.23;;;;;;;-1.65;89.36;100690.78;5090272;28;20052;-70
2021/01/18 03:00:07;;;;;;;59.50;30.13;;;;;;;-1.63;89.80;100688.84;5055783;28;20059;-70
2021/01/18 03:02:44;;;;;;;61.63;29.75;;;;;;;-1.64;90.02;100687.16;5090279;28;20048;-71
2021/01/18 03:05:29;;;;;;;57.75;29.35;;;;;;;-1.56;89.42;100683.84;5056026;28;20135;-70
2021/01/18 03:08:01;;;;;;;57.38;28.63;;;;;;;-1.59;89.17;100690.28;5043032;28;20059;-71
2021/01/18 03:10:40;;;;;;;57.22;28.30;;;;;;;-1.45;89.33;100692.69;5090377;28;20047;-71
2021/01/18 03:13:13;;;;;;;51.65;27.60;;;;;;;-1.50;88.84;100689.53;5039505;28;20044;-71
2021/01/18 03:15:41;;;;;;;52.63;27.13;;;;;;;-1.54;89.14;100688.09;5072278;28;20581;-70
2021/01/18 03:18:13;;;;;;;54.92;27.58;;;;;;;-1.43;88.78;100690.75;5048825;28;20151;-71
2021/01/18 03:20:39;;;;;;;57.88;29.38;;;;;;;-1.33;88.78;100695.28;5066154;28;20127;-71
2021/01/18 03:23:08;;;;;;;51.30;27.65;;;;;;;-1.45;88.70;100692.69;5072165;28;20058;-71
2021/01/18 03:25:47;;;;;;;52.30;27.70;;;;;;;-1.44;88.59;100697.06;5036696;28;20088;-71
2021/01/18 03:28:14;;;;;;;;;;;;;;;-1.45;88.70;100690.00;5059148;28;20049;-71
2021/01/18 03:30:41;;;;;;;53.92;26.63;;;;;;;-1.38;88.23;100693.00;5069546;28;19959;-71
2021/01/18 03:33:07;;;;;;;53.65;27.33;;;;;;;-1.20;88.55;100691.47;5090108;28;20444;-71
2021/01/18 03:35:33;;;;;;;57.97;29.10;;;;;;;-1.02;87.25;100692.59;5071733;28;20075;-71
2021/01/18 03:38:00;;;;;;;50.85;27.15;;;;;;;-0.78;87.37;100695.00;5082073;28;20491;-71
2021/01/18 03:40:28;;;;;;;56.13;27.20;;;;;;;-0.55;86.49;100690.34;5090121;28;20048;-71
2021/01/18 03:43:01;;;;;;;52.10;28.02;;;;;;;-0.45;85.67;100682.38;5055563;28;20161;-71
2021/01/18 03:45:30;;;;;;;49.60;26.10;;;;;;;-0.38;85.13;100688.88;5055451;28;20075;-73
2021/01/18 03:47:56;;;;;;;53.65;27.13;;;;;;;-0.49;85.04;100683.63;5072009;28;20048;-71
2021/01/18 03:50:23;;;;;;;53.47;27.98;;;;;;;-0.29;84.35;100687.22;5072019;28;20051;-70
2021/01/18 03:52:51;;;;;;;50.67;27.60;;;;;;;-0.38;84.31;100684.38;5072461;28;20048;-70
2021/01/18 03:55:18;;;;;;;47.72;26.98;;;;;;;-0.46;84.96;100686.03;5070538;28;20098;-71
2021/01/18 03:57:45;;;;;;;50.58;26.95;;;;;;;-0.19;84.04;100686.28;5073843;28;20532;-71
2021/01/18 04:00:12;;;;;;;50.50;27.17;;;;;;;-0.20;83.58;100676.53;5075607;28;20517;-71
2021/01/18 04:02:39;;;;;;;48.50;26.60;;;;;;;-0.14;83.55;100681.38;5058785;28;20051;-71
2021/01/18 04:05:06;;;;;;;56.20;27.98;;;;;;;-0.45;83.99;100687.72;5093722;28;20072;-70
2021/01/18 04:07:33;;;;;;;52.08;27.98;;;;;;;-0.30;83.62;100683.69;5079262;28;20527;-71
2021/01/18 04:09:59;;;;;;;52.85;28.30;;;;;;;-0.27;84.30;100674.53;5075508;28;20062;-71
2021/01/18 04:12:25;;;;;;;50.88;28.50;;;;;;;-0.22;83.94;100678.50;5093317;28;20048;-70
2021/01/18 04:14:51;;;;;;;52.97;26.02;;;;;;;-0.09;83.26;100668.41;5058977;28;20052;-71
2021/01/18 04:17:20;;;;;;;51.95;27.65;;;;;;;-0.12;83.29;100674.03;5058438;28;20121;-71
2021/01/18 04:19:47;;;;;;;52.75;27.17;;;;;;;-0.21;84.71;100671.31;5075217;28;20418;-71
2021/01/18 04:22:13;;;;;;;55.92;28.67;;;;;;;-0.22;84.80;100678.50;5075249;28;20079;-71
2021/01/18 04:24:40;;;;;;;54.92;28.95;;;;;;;-0.11;84.95;100677.56;5051377;28;20570;-71
2021/01/18 04:27:07;;;;;;;59.28;30.60;;;;;;;-0.22;85.67;100673.16;5025698;28;20055;-71
2021/01/18 04:29:34;;;;;;;56.53;28.55;;;;;;;-0.21;86.17;100674.84;5037295;28;20114;-70
2021/01/18 04:32:00;;;;;;;59.35;28.55;;;;;;;-0.18;86.19;100671.91;5051655;28;20056;-71
2021/01/18 04:34:27;;;;;;;57.55;29.77;;;;;;;-0.30;86.39;100680.16;5075027;28;20047;-71
2021/01/18 04:36:53;;;;;;;57.10;28.65;;;;;;;-0.67;86.52;100678.00;5035695;28;20118;-70
2021/01/18 04:39:19;;;;;;;56.70;29.40;;;;;;;-0.56;87.14;100682.44;5074956;28;20048;-71
2021/01/18 04:41:46;;;;;;;56.67;28.95;;;;;;;-0.19;87.26;100688.94;5058134;28;20044;-70
2021/01/18 04:44:18;;;;;;;57.30;29.30;;;;;;;-0.25;86.97;100691.31;5057986;28;20131;-71
2021/01/18 04:46:46;;;;;;;58.80;30.50;;;;;;;-0.32;87.45;100691.00;5058583;28;20048;-73
2021/01/18 04:49:13;;;;;;;58.75;31.30;;;;;;;-0.24;86.51;100680.47;5092729;28;20535;-70
2021/01/18 04:51:49;;;;;;;58.83;30.52;;;;;;;-0.17;87.26;100676.28;5058209;28;20052;-71
2021/01/18 04:54:18;;;;;;;59.03;30.30;;;;;;;-0.09;87.52;100672.94;5067150;28;20036;-70
2021/01/18 04:56:56;;;;;;;59.60;30.38;;;;;;;-0.08;87.50;100674.63;5052778;28;20059;-70
2021/01/18 04:59:28;;;;;;;60.97;30.77;;;;;;;-0.15;87.39;100679.66;5058016;28;20044;-70
2021/01/18 05:02:07;;;;;;;63.88;30.63;;;;;;;-0.14;87.23;100669.81;5074824;28;20051;-70
2021/01/18 05:04:39;;;;;;;64.65;32.17;;;;;;;-0.10;87.63;100668.56;5058127;28;20090;-70
2021/01/18 05:07:32;;;;;;;64.70;31.35;;;;;;;-0.04;87.41;100674.22;5062977;28;20101;-71
2021/01/18 05:10:10;;;;;;;56.50;29.38;;;;;;;-0.10;87.51;100669.41;5073735;28;20047;-71
2021/01/18 05:12:42;;;;;;;61.45;29.73;;;;;;;-0.12;87.75;100674.03;5058082;28;20071;-71
2021/01/18 05:15:11;;;;;;;65.85;30.92;;;;;;;-0.18;88.57;100674.56;5074378;28;20052;-71
2021/01/18 05:17:43;;;;;;;67.53;31.10;;;;;;;-0.12;88.44;100668.69;5073754;28;20043;-71
2021/01/18 05:20:11;;;;;;;69.05;31.65;;;;;;;-0.09;89.11;100678.28;5058098;28;20105;-71
2021/01/18 05:22:49;;;;;;;66.93;31.40;;;;;;;-0.21;88.70;100674.00;5074204;28;20047;-71
2021/01/18 05:25:16;;;;;;;64.18;31.55;;;;;;;-0.16;89.08;100677.97;5053580;28;20058;-73
2021/01/18 05:28:09;;;;;;;61.22;29.85;;;;;;;-0.09;89.04;100679.13;5040950;28;20456;-73
2021/01/18 05:30:41;;;;;;;60.33;31.58;;;;;;;-0.01;88.57;100673.94;5057642;28;20436;-73
2021/01/18 05:33:12;;;;;;;63.58;31.02;;;;;;;-0.07;88.48;100671.81;5057651;28;20409;-73
2021/01/18 05:35:46;;;;;;;64.97;31.50;;;;;;;-0.18;89.00;100677.25;5073244;28;20048;-73
2021/01/18 05:38:13;;;;;;;61.83;29.80;;;;;;;-0.11;88.50;100672.22;5069937;28;20048;-72
2021/01/18 05:40:47;;;;;;;63.65;30.23;;;;;;;0.00;89.00;100672.94;5024817;28;20436;-73
2021/01/18 05:43:15;;;;;;;68.43;31.05;;;;;;;-0.03;88.97;100681.25;5074157;28;20047;-73
2021/01/18 05:45:43;;;;;;;74.60;34.00;;;;;;;-0.04;89.20;100684.94;5041096;28;20040;-73
2021/01/18 05:48:10;;;;;;;72.00;30.33;;;;;;;0.10;89.62;100682.81;5073722;28;20048;-73
2021/01/18 05:50:38;;;;;;;73.47;32.13;;;;;;;0.11;89.93;100684.53;5031290;28;20041;-73
2021/01/18 05:53:23;;;;;;;65.72;29.88;;;;;;;0.03;90.02;100689.72;5042442;28;20048;-73
2021/01/18 05:55:56;;;;;;;68.10;30.30;;;;;;;0.14;90.94;100690.47;5067667;28;20056;-70
2021/01/18 05:58:31;;;;;;;64.63;29.65;;;;;;;0.16;90.91;100691.16;5073323;28;20055;-70
2021/01/18 06:00:58;;;;;;;67.20;29.77;;;;;;;0.04;91.61;100694.09;5073476;28;20079;-70
2021/01/18 06:03:29;;;;;;;67.47;29.58;;;;;;;0.24;90.33;100691.34;5091200;28;20044;-71
2021/01/18 06:05:56;;;;;;;71.05;30.83;;;;;;;0.07;90.66;100688.47;5050308;28;20056;-71
2021/01/18 06:08:24;;;;;;;68.28;28.48;;;;;;;0.27;91.08;100695.56;5066251;28;20090;-70
2021/01/18 06:11:01;;;;;;;68.57;30.10;;;;;;;0.32;90.63;100698.69;5040097;28;20102;-70
2021/01/18 06:13:29;;;;;;;71.50;30.73;;;;;;;0.34;90.52;100702.09;5040110;28;20048;-70
2021/01/18 06:16:01;;;;;;;68.65;30.17;;;;;;;0.42;90.26;100698.69;5057197;28;20109;-70
2021/01/18 06:18:29;;;;;;;63.42;28.92;;;;;;;0.41;90.16;100697.00;5040038;28;20079;-70
2021/01/18 06:20:57;;;;;;;63.78;28.52;;;;;;;0.40;90.87;100698.81;5073021;28;20052;-71
2021/01/18 06:23:24;;;;;;;71.32;30.27;;;;;;;0.41;92.99;100705.03;5050650;28;20053;-70
2021/01/18 06:25:52;;;;;;;71.45;31.23;;;;;;;0.41;95.06;100703.19;5052146;28;20048;-70
2021/01/18 06:28:34;;;;;;;64.53;28.40;;;;;;;0.45;95.16;100703.78;5056198;28;20048;-71
2021/01/18 06:31:10;;;;;;;67.93;30.05;;;;;;;0.47;95.01;100696.44;5039968;28;20052;-71
2021/01/18 06:33:44;;;;;;;65.72;30.38;;;;;;;0.57;95.25;100695.47;5072884;28;20512;-71
2021/01/18 06:36:25;;;;;;;67.45;29.65;;;;;;;0.54;95.04;100703.78;5046975;28;20075;-71
2021/01/18 06:38:58;;;;;;;70.20;30.40;;;;;;;0.56;94.96;100707.19;5031410;28;20044;-71
2021/01/18 06:41:29;;;;;;;61.88;27.55;;;;;;;0.59;92.53;100700.69;5090842;28;20058;-71
2021/01/18 06:43:55;;;;;;;71.20;29.48;;;;;;;0.54;90.98;100706.47;5090659;28;20051;-71
2021/01/18 06:46:25;;;;;;;62.95;28.77;;;;;;;0.68;90.47;100705.22;5073043;28;20063;-71
2021/01/18 06:48:52;;;;;;;63.42;28.08;;;;;;;0.58;90.41;100709.72;5073008;28;20068;-70
2021/01/18 06:51:20;;;;;;;64.85;28.48;;;;;;;0.68;90.80;100709.75;5072938;28;20044;-71
2021/01/18 06:53:48;;;;;;;71.10;30.00;;;;;;;0.72;89.85;100716.50;5064866;28;20124;-70
2021/01/18 06:56:20;;;;;;;60.22;26.75;;;;;;;0.69;89.61;100719.47;5054100;28;20123;-71
2021/01/18 06:58:55;;;;;;;64.22;29.38;;;;;;;0.76;89.65;100718.75;5072532;28;20045;-71
2021/01/18 07:01:31;;;;;;;58.53;26.70;;;;;;;0.87;89.69;100723.16;5056408;28;20074;-71
2021/01/18 07:04:04;;;;;;;60.08;25.60;;;;;;;0.85;89.70;100727.81;5055772;28;20402;-71
2021/01/18 07:06:35;;;;;;;56.03;25.77;;;;;;;0.86;89.57;100727.66;5048058;28;20127;-71
2021/01/18 07:09:04;;;;;;;52.58;24.55;;;;;;;0.87;88.98;100731.19;5053957;28;20132;-71
2021/01/18 07:12:00;;;;;;;53.47;23.02;;;;;;;0.90;89.43;100726.41;5075160;28;20109;-71
2021/01/18 07:14:28;;;;;;;47.83;22.63;;;;;;;0.82;89.36;100722.72;5072904;28;20052;-71
2021/01/18 07:17:04;;;;;;;53.03;24.25;;;;;;;0.80;89.40;100725.53;5056121;28;20087;-71
2021/01/18 07:19:38;;;;;;;43.03;20.13;;;;;;;0.84;89.77;100728.78;5056510;28;20040;-71
2021/01/18 07:22:51;;;;;;;52.30;22.27;;;;;;;0.99;89.13;100725.56;5074534;28;20043;-71
2021/01/18 07:25:32;;;;;;;48.67;20.25;;;;;;;0.93;88.73;100725.28;5051026;28;20577;-71
2021/01/18 07:27:58;;;;;;;41.83;20.00;;;;;;;0.77;89.94;100722.28;5070597;28;20060;-71
2021/01/18 07:30:30;;;;;;;42.65;17.88;;;;;;;1.00;88.99;100729.94;5070576;28;20078;-71
2021/01/18 07:33:14;;;;;;;38.78;17.48;;;;;;;1.02;88.34;100729.78;5065258;28;20052;-71
2021/01/18 07:35:43;;;;;;;34.97;16.15;;;;;;;1.06;88.42;100731.16;5055592;28;20093;-71
2021/01/18 07:38:18;;;;;;;33.20;16.17;;;;;;;1.00;88.24;100727.25;5056258;28;20093;-73
2021/01/18 07:41:20;;;;;;;37.65;17.45;;;;;;;1.11;88.12;100728.06;5059055;28;20579;-73
2021/01/18 07:43:48;;;;;;;32.30;14.85;;;;;;;1.02;87.47;100728.94;5011122;28;20058;-73
2021/01/18 07:46:25;;;;;;;39.10;15.70;;;;;;;1.15;87.66;100735.69;5051752;28;20131;-73
2021/01/18 07:48:56;;;;;;;32.55;15.70;;;;;;;1.26;87.46;100742.75;5076379;28;20528;-72
2021/01/18 07:51:29;;;;;;;33.92;14.55;;;;;;;1.32;87.38;100750.25;5076072;28;20051;-74
2021/01/18 07:53:56;;;;;;;36.22;14.95;;;;;;;1.46;86.58;100751.63;5056912;28;20469;-73
2021/01/18 07:56:26;;;;;;;36.53;14.98;;;;;;;1.42;85.60;100752.88;5042795;28;20052;-72
2021/01/18 07:58:57;;;;;;;30.92;13.65;;;;;;;1.47;85.80;100754.16;5075800;28;20127;-73
2021/01/18 08:01:27;;;;;;;36.10;14.32;;;;;;;1.51;85.57;100747.50;5075614;28;20052;-73
2021/01/18 08:04:20;;;;;;;28.50;15.20;;;;;;;1.55;85.45;100748.06;5048056;28;20502;-73
2021/01/18 08:07:06;;;;;;;28.45;12.05;;;;;;;1.62;85.54;100744.66;5050214;28;20525;-72
2021/01/18 08:09:34;;;;;;;28.83;12.13;;;;;;;1.79;84.85;100748.41;5065092;28;20044;-73
2021/01/18 08:12:28;;;;;;;30.73;11.90;;;;;;;2.15;83.01;100743.19;5072326;28;20050;-72
2021/01/18 08:14:55;;;;;;;27.05;11.50;;;;;;;2.29;82.31;100742.69;5093850;28;20131;-72
2021/01/18 08:17:22;;;;;;;23.70;11.30;;;;;;;2.54;80.03;100731.22;5059119;28;20054;-72
2021/01/18 08:20:22;;;;;;;23.30;10.63;;;;;;;2.86;78.97;100729.84;5059098;28;20394;-73
2021/01/18 08:22:49;;;;;;;19.75;9.95;;;;;;;2.98;78.57;100734.84;5045228;28;20529;-73
2021/01/18 08:25:15;;;;;;;19.98;10.10;;;;;;;3.26;77.36;100732.91;5076100;28;20560;-73
2021/01/18 08:27:46;;;;;;;22.95;10.18;;;;;;;3.51;76.28;100733.06;5063446;28;20044;-73
2021/01/18 08:30:19;;;;;;;20.23;9.00;;;;;;;4.29;74.16;100732.00;5075431;28;20054;-72
2021/01/18 08:33:07;;;;;;;21.00;9.55;;;;;;;6.89;64.08;100728.97;5058847;28;20086;-73
2021/01/18 08:35:46;;;;;;;18.00;8.37;;;;;;;7.59;61.91;100723.31;5074731;28;20109;-73
2021/01/18 08:38:26;;;;;;;20.08;7.90;;;;;;;11.25;49.69;100717.09;5052061;28;20309;-74
2021/01/18 08:41:01;;;;;;;17.55;8.77;;;;;;;12.27;46.25;100705.69;5092301;28;20044;-74
2021/01/18 08:43:45;;;;;;;18.17;7.68;;;;;;;11.18;47.16;100708.06;5058482;28;20040;-75
2021/01/18 08:46:39;;;;;;;21.17;8.73;;;;;;;11.41;47.23;100714.81;5051615;28;20044;-73
2021/01/18 08:49:23;;;;;;;16.38;7.40;;;;;;;12.79;43.46;100717.47;5074350;28;20410;-75
2021/01/18 08:51:50;;;;;;;25.23;8.10;;;;;;;14.45;39.40;100713.16;5074670;28;20058;-74
2021/01/18 08:54:36;;;;;;;17.55;8.02;;;;;;;10.53;47.53;100732.22;5056662;28;20618;-74
2021/01/18 08:57:23;;;;;;;18.25;7.50;;;;;;;8.59;54.00;100729.13;5058349;28;20083;-74
2021/01/18 09:00:07;;;;;;;20.00;8.50;;;;;;;7.14;59.12;100740.47;5058626;28;20051;-73
2021/01/18 09:02:33;;;;;;;20.70;7.80;;;;;;;6.18;62.86;100742.72;5057908;28;20048;-74
2021/01/18 09:05:19;;;;;;;17.42;8.00;;;;;;;5.62;66.39;100747.19;5058009;28;20112;-73
2021/01/18 09:07:49;;;;;;;20.85;8.57;;;;;;;5.39;67.58;100753.28;5013616;28;20097;-73
2021/01/18 09:10:20;;;;;;;21.17;8.85;;;;;;;4.93;69.91;100751.22;5075182;28;20071;-73
2021/01/18 09:12:48;;;;;;;21.58;9.65;;;;;;;4.81;70.10;100757.97;5075002;28;20063;-73
2021/01/18 09:15:17;;;;;;;28.30;8.57;;;;;;;4.71;71.51;100752.72;5058499;28;20135;-73
2021/01/18 09:17:44;;;;;;;24.85;10.55;;;;;;;4.57;72.52;100746.09;5057994;28;20505;-73
2021/01/18 09:20:11;;;;;;;23.65;8.75;;;;;;;4.79;71.14;100749.19;5074882;28;20044;-73
2021/01/18 09:22:41;;;;;;;25.40;9.75;;;;;;;4.78;71.09;100755.59;5054853;28;20072;-73
2021/01/18 09:25:08;;;;;;;19.50;8.80;;;;;;;4.44;71.43;100751.13;5031028;28;20174;-72
2021/01/18 09:27:36;;;;;;;24.40;9.88;;;;;;;4.23;72.09;100758.78;5059990;28;20052;-73
2021/01/18 09:30:16;;;;;;;24.23;9.32;;;;;;;4.11;73.16;100754.69;5057712;28;20132;-72
2021/01/18 09:32:56;;;;;;;18.77;9.70;;;;;;;4.13;72.65;100760.75;5075342;28;20476;-73
2021/01/18 09:35:25;;;;;;;17.75;8.20;;;;;;;4.12;73.09;100761.78;5057922;28;20036;-73
2021/01/18 09:37:52;;;;;;;23.10;9.68;;;;;;;4.38;71.96;100757.16;5068290;28;20143;-73
2021/01/18 09:40:36;;;;;;;18.10;7.93;;;;;;;4.64;71.10;100755.22;5062167;28;20044;-72
2021/01/18 09:43:03;;;;;;;21.70;8.48;;;;;;;4.76;70.76;100754.91;5074221;28;20123;-73
2021/01/18 09:45:30;;;;;;;21.33;8.30;;;;;;;4.94;69.94;100750.22;5047789;28;20201;-72
2021/01/18 09:48:02;;;;;;;21.95;7.65;;;;;;;5.17;69.42;100756.69;5030268;28;20099;-74
2021/01/18 09:50:30;;;;;;;22.83;7.00;;;;;;;5.22;68.66;100751.59;5037263;28;20053;-73
2021/01/18 09:52:56;;;;;;;22.08;7.85;;;;;;;5.30;68.42;100753.44;5054146;28;20102;-73
2021/01/18 09:55:37;;;;;;;19.25;8.77;;;;;;;5.54;67.62;100761.56;5077368;28;20040;-74
2021/01/18 09:58:07;;;;;;;18.33;6.88;;;;;;;5.41;67.66;100755.81;5088344;28;20048;-73
2021/01/18 10:00:36;;;;;;;19.27;6.85;;;;;;;5.49;67.21;100757.69;5064066;28;20047;-73
2021/01/18 10:03:05;;;;;;;20.38;7.20;;;;;;;5.24;68.41;100762.22;5058118;28;20131;-74
2021/01/18 10:05:39;;;;;;;19.75;7.20;;;;;;;5.42;67.89;100767.47;5057182;28;20036;-73
2021/01/18 10:08:25;;;;;;;15.57;7.32;;;;;;;5.28;68.66;100766.28;5063960;28;20052;-74
2021/01/18 10:10:51;;;;;;;13.80;6.68;;;;;;;5.28;68.57;100759.03;5056378;28;20123;-74
2021/01/18 10:13:23;;;;;;;18.75;5.85;;;;;;;5.29;68.24;100765.28;5091113;28;20495;-73
2021/01/18 10:15:49;;;;;;;17.42;7.32;;;;;;;5.28;67.96;100766.28;5057463;28;20044;-73
2021/01/18 10:18:38;;;;;;;13.95;7.18;;;;;;;5.18;68.52;100766.47;5056842;28;20537;-74
2021/01/18 10:21:05;;;;;;;18.70;7.68;;;;;;;5.10;68.77;100762.91;5057014;28;20144;-73
2021/01/18 10:23:34;;;;;;;19.67;7.55;;;;;;;4.91;70.01;100758.66;5055702;28;20040;-74
2021/01/18 10:26:24;;;;;;;19.13;6.68;;;;;;;5.08;68.82;100756.81;5044915;28;20135;-73
2021/01/18 10:29:03;;;;;;;18.13;6.88;;;;;;;5.24;68.95;100762.22;5066223;28;20101;-74
2021/01/18 10:31:30;;;;;;;15.88;7.07;;;;;;;5.30;68.43;100754.31;5073317;28;20139;-74
2021/01/18 10:34:17;;;;;;;18.80;8.13;;;;;;;5.55;68.03;100754.28;5039762;28;20439;-73
2021/01/18 10:36:45;;;;;;;15.48;6.95;;;;;;;5.87;66.55;100756.97;5049912;28;20044;-74
2021/01/18 10:39:32;;;;;;;16.23;6.10;;;;;;;7.01;63.04;100742.94;5039935;28;20135;-74
2021/01/18 10:42:16;;;;;;;19.85;5.25;;;;;;;7.26;61.17;100744.47;5058967;28;20055;-74
2021/01/18 10:44:51;;;;;;;15.27;6.05;;;;;;;7.10;61.69;100744.56;5056349;28;20742;-73
2021/01/18 10:47:25;;;;;;;13.60;5.18;;;;;;;6.73;62.44;100743.44;5090991;28;20044;-73
2021/01/18 10:49:57;;;;;;;18.50;5.43;;;;;;;6.59;62.71;100746.91;5056569;28;20048;-73
2021/01/18 10:52:39;;;;;;;14.35;5.93;;;;;;;6.55;63.28;100751.00;5044318;28;20123;-73
2021/01/18 10:55:06;;;;;;;12.57;5.53;;;;;;;6.88;61.81;100740.00;5043523;28;20499;-73
2021/01/18 10:57:43;;;;;;;14.70;5.30;;;;;;;6.92;61.67;100734.03;5057602;28;20048;-72
2021/01/18 11:00:20;;;;;;;14.15;5.70;;;;;;;6.68;61.69;100742.28;5073264;28;20403;-73
2021/01/18 11:02:57;;;;;;;15.02;5.82;;;;;;;6.83;62.01;100737.81;5040238;28;20048;-73
2021/01/18 11:05:36;;;;;;;13.25;5.78;;;;;;;7.03;61.31;100736.31;5056467;28;20047;-73
2021/01/18 11:08:04;;;;;;;21.02;10.68;;;;;;;7.45;60.26;100736.84;5051019;28;20587;-72
2021/01/18 11:10:32;;;;;;;15.52;6.28;;;;;;;7.42;60.16;100737.19;5077111;28;20452;-74
2021/01/18 11:13:01;;;;;;;15.55;5.90;;;;;;;7.83;58.72;100735.78;5060038;28;20051;-73
2021/01/18 11:15:34;;;;;;;16.75;6.78;;;;;;;7.83;58.57;100726.81;5027544;28;20051;-74
2021/01/18 11:18:00;;;;;;;15.90;6.25;;;;;;;7.56;59.78;100734.53;5059954;28;20102;-74
2021/01/18 11:20:29;;;;;;;15.55;5.38;;;;;;;7.32;60.70;100723.88;5094150;28;20078;-73
2021/01/18 11:22:59;;;;;;;16.73;5.35;;;;;;;7.11;61.10;100730.00;5044590;28;20044;-74
2021/01/18 11:25:27;;;;;;;12.73;6.28;;;;;;;6.80;61.84;100719.19;5064943;28;20471;-73
2021/01/18 11:27:54;;;;;;;15.38;6.35;;;;;;;6.07;64.67;100730.38;5076386;28;20571;-74
2021/01/18 11:30:21;;;;;;;13.48;5.72;;;;;;;6.03;64.59;100724.47;5076833;28;20071;-75
2021/01/18 11:32:48;;;;;;;12.10;6.13;;;;;;;5.97;65.34;100727.03;5075382;28;20055;-73
2021/01/18 11:35:15;;;;;;;15.43;6.00;;;;;;;5.74;66.45;100729.59;5054750;28;20430;-74
2021/01/18 11:37:41;;;;;;;15.95;6.47;;;;;;;6.10;65.67;100730.03;5054585;28;20072;-74